KMTW/MTW METAR and TAF weather

Enter ICAO airport designator
Station Type Date Time Source
KMTW METAR 2019/02/22 23:56 UTC NOAA

KMTW 222356Z AUTO 16003KT 7SM CLR M02/M05 A3039 RMK AO2 SLP314 T10221050 10000 21028 56008 FZRANO


Station Type Date Time Source
KMTW Decoded METAR 2019/02/22 23:56 UTC NOAA

Manitowoc, Manitowoc County Airport, WI, United States (KMTW) 44-08N 087-41W
Feb 22, 2019 - 06:56 PM EST / 2019.02.22 2356 UTC
Wind: from the SSE (160 degrees) at 3 MPH (3 KT):0
Visibility: 7 mile(s):0
Sky conditions: clear
Temperature: 28.0 F (-2.2 C)
Dew Point: 23.0 F (-5.0 C)
Relative Humidity: 81%
Pressure (altimeter): 30.39 in. Hg (1029 hPa)
Pressure tendency: 0.02 inches (0.8 hPa) lower than three hours ago
ob: KMTW 222356Z AUTO 16003KT 7SM CLR M02/M05 A3039 RMK AO2 SLP314 T10221050 10000 21028 56008 FZRANO
cycle: 0

Station Type Date Time Source
KMTW TAF 2019/02/22 18:36 UTC NOAA

TAF KMTW 221735Z 2218/2318 VRB04KT P6SM SCT250
FM230400 10005KT P6SM BKN120
FM231200 09009KT P6SM OVC070
FM231600 09011KT 4SM -SNPL BR OVC020


Example: see airport list